createdAt,value
2023-05-16T00:01:13.879Z,17.71
2023-05-16T00:03:42.664Z,17.73
2023-05-16T00:06:09.983Z,17.77
2023-05-16T00:08:36.974Z,17.79
2023-05-16T00:11:03.979Z,17.72
2023-05-16T00:13:31.114Z,17.78
2023-05-16T00:15:59.604Z,17.88
2023-05-16T00:18:27.530Z,17.97
2023-05-16T00:20:55.033Z,18.10
2023-05-16T00:23:25.072Z,18.14
2023-05-16T00:25:52.057Z,18.18
2023-05-16T00:28:18.795Z,18.42
2023-05-16T00:30:45.750Z,18.57
2023-05-16T00:33:12.745Z,18.69
2023-05-16T00:35:39.703Z,18.90
2023-05-16T00:38:06.596Z,19.04
2023-05-16T00:40:33.490Z,19.09
2023-05-16T00:43:00.564Z,19.10
2023-05-16T00:45:27.836Z,19.16
2023-05-16T00:47:55.224Z,19.18
2023-05-16T00:50:22.541Z,19.20
2023-05-16T00:52:49.867Z,19.16
2023-05-16T00:55:19.604Z,19.12
2023-05-16T00:57:47.021Z,19.29
2023-05-16T01:00:20.083Z,19.27
2023-05-16T01:02:48.375Z,19.31
2023-05-16T01:05:15.635Z,19.28
2023-05-16T01:07:42.785Z,19.26
2023-05-16T01:10:10.355Z,19.39
2023-05-16T01:12:56.588Z,19.37
2023-05-16T01:15:32.013Z,19.33
2023-05-16T01:18:16.832Z,19.39
2023-05-16T01:20:57.263Z,19.43
2023-05-16T01:23:30.149Z,19.43
2023-05-16T01:26:17.502Z,19.45
2023-05-16T01:28:48.556Z,19.62
2023-05-16T01:31:16.790Z,19.63
2023-05-16T01:33:44.193Z,19.57
2023-05-16T01:36:26.764Z,19.59
2023-05-16T01:39:11.467Z,19.52
2023-05-16T01:42:11.204Z,19.48
2023-05-16T01:44:44.096Z,19.46
2023-05-16T01:47:16.648Z,19.41
2023-05-16T01:49:56.387Z,19.31
2023-05-16T01:52:28.842Z,19.30
2023-05-16T01:54:59.480Z,19.21
2023-05-16T01:57:28.531Z,19.15
2023-05-16T01:59:56.347Z,19.02
2023-05-16T02:02:23.492Z,18.95
2023-05-16T02:04:54.000Z,18.86
2023-05-16T02:07:21.189Z,18.73
2023-05-16T02:09:48.181Z,18.70
2023-05-16T02:12:15.012Z,18.64
2023-05-16T02:14:42.278Z,18.48
2023-05-16T02:17:09.379Z,18.46
2023-05-16T02:19:36.507Z,18.31
2023-05-16T02:22:03.311Z,18.25
2023-05-16T02:24:30.325Z,18.07
2023-05-16T02:26:57.242Z,18.08
2023-05-16T02:29:24.599Z,17.95
2023-05-16T02:31:51.748Z,17.85
2023-05-16T02:34:18.790Z,17.78
2023-05-16T02:36:45.597Z,17.69
2023-05-16T02:39:12.303Z,17.55
2023-05-16T02:41:39.356Z,17.44
2023-05-16T02:44:06.176Z,17.36
2023-05-16T02:46:35.198Z,17.33
2023-05-16T02:49:02.346Z,17.31
2023-05-16T02:51:29.445Z,17.27
2023-05-16T02:54:00.740Z,17.20
2023-05-16T02:56:28.116Z,17.05
2023-05-16T02:58:56.209Z,17.00
2023-05-16T03:01:23.517Z,16.91
2023-05-16T03:03:50.583Z,16.86
2023-05-16T03:06:17.408Z,16.85
2023-05-16T03:08:44.060Z,16.83
2023-05-16T03:11:11.134Z,16.83
2023-05-16T03:13:37.847Z,16.79
2023-05-16T03:16:09.621Z,16.77
2023-05-16T03:18:36.731Z,16.83
2023-05-16T03:21:03.549Z,16.78
2023-05-16T03:23:30.396Z,16.74
2023-05-16T03:25:57.454Z,16.73
2023-05-16T03:28:24.632Z,16.67
2023-05-16T03:30:51.272Z,16.73
2023-05-16T03:33:19.195Z,16.73
2023-05-16T03:35:46.794Z,16.79
2023-05-16T03:38:13.969Z,16.87
2023-05-16T03:40:41.782Z,16.78
2023-05-16T03:43:08.622Z,16.80
2023-05-16T03:45:35.387Z,16.72
2023-05-16T03:48:02.350Z,16.64
2023-05-16T03:50:29.280Z,16.69
2023-05-16T03:52:56.363Z,16.77
2023-05-16T03:55:23.302Z,16.73
2023-05-16T03:57:59.453Z,16.72
2023-05-16T04:00:26.847Z,16.81
2023-05-16T04:02:53.712Z,16.80
2023-05-16T04:05:20.737Z,16.81
2023-05-16T04:07:47.538Z,16.83
2023-05-16T04:10:17.554Z,16.98
2023-05-16T04:12:44.999Z,16.95
2023-05-16T04:15:12.200Z,16.94
2023-05-16T04:18:02.941Z,16.94
2023-05-16T04:20:31.138Z,16.96
2023-05-16T04:22:59.157Z,16.97
2023-05-16T04:25:26.324Z,16.95
2023-05-16T04:27:53.812Z,16.93
2023-05-16T04:30:20.498Z,16.94
2023-05-16T04:32:47.519Z,16.92
2023-05-16T04:35:14.628Z,16.93
2023-05-16T04:37:41.304Z,16.96
2023-05-16T04:40:09.925Z,16.99
2023-05-16T04:42:37.014Z,16.97
2023-05-16T04:45:06.701Z,17.02
2023-05-16T04:47:33.871Z,17.12
2023-05-16T04:50:01.205Z,17.11
2023-05-16T04:52:27.873Z,17.05
2023-05-16T04:54:54.558Z,17.15
2023-05-16T04:57:22.213Z,17.08
2023-05-16T04:59:48.834Z,17.14
2023-05-16T05:02:15.773Z,17.10
2023-05-16T05:04:42.829Z,17.15
2023-05-16T05:07:09.694Z,17.18
2023-05-16T05:09:36.477Z,17.24
2023-05-16T05:12:03.715Z,17.23
2023-05-16T05:14:30.523Z,17.23
2023-05-16T05:16:57.375Z,17.29
2023-05-16T05:19:24.200Z,17.29
2023-05-16T05:21:51.343Z,17.37
2023-05-16T05:24:21.337Z,17.40
2023-05-16T05:26:48.157Z,17.36
2023-05-16T05:29:14.898Z,17.40
2023-05-16T05:31:41.880Z,17.45
2023-05-16T05:34:08.905Z,17.47
2023-05-16T05:36:35.902Z,17.45
2023-05-16T05:39:02.721Z,17.44
2023-05-16T05:41:29.438Z,17.41
2023-05-16T05:43:56.092Z,17.43
2023-05-16T05:46:25.113Z,17.52
2023-05-16T05:48:52.762Z,17.69
2023-05-16T05:51:19.695Z,17.78
2023-05-16T05:53:46.808Z,17.95
2023-05-16T05:56:13.816Z,18.06
2023-05-16T05:58:43.160Z,18.15
2023-05-16T06:01:11.508Z,18.27
2023-05-16T06:03:38.620Z,18.40
2023-05-16T06:06:06.041Z,18.49
2023-05-16T06:08:33.620Z,18.52
2023-05-16T06:11:00.841Z,18.56
2023-05-16T06:13:27.790Z,18.63
2023-05-16T06:15:55.204Z,18.69
2023-05-16T06:18:22.103Z,18.75
2023-05-16T06:20:49.273Z,18.81
2023-05-16T06:23:18.245Z,18.91
2023-05-16T06:25:46.175Z,19.00
2023-05-16T06:28:15.983Z,19.09
2023-05-16T06:30:42.741Z,19.18
2023-05-16T06:33:09.624Z,19.23
2023-05-16T06:35:36.684Z,19.40
2023-05-16T06:38:03.520Z,19.56
2023-05-16T06:40:30.557Z,19.69
2023-05-16T06:42:58.604Z,19.95
2023-05-16T06:45:25.623Z,20.16
2023-05-16T06:47:54.146Z,20.38
2023-05-16T06:50:23.214Z,20.47
2023-05-16T06:52:50.098Z,20.62
2023-05-16T06:55:17.137Z,20.61
2023-05-16T06:57:44.102Z,20.78
2023-05-16T07:00:14.504Z,20.84
2023-05-16T07:02:42.088Z,20.99
2023-05-16T07:05:08.887Z,21.06
2023-05-16T07:07:36.594Z,21.11
2023-05-16T07:10:04.824Z,21.19
2023-05-16T07:12:31.841Z,21.27
2023-05-16T07:14:58.554Z,21.17
2023-05-16T07:17:25.517Z,21.29
2023-05-16T07:19:55.365Z,21.39
2023-05-16T07:22:22.154Z,21.54
2023-05-16T07:24:48.971Z,21.57
2023-05-16T07:27:19.950Z,21.50
2023-05-16T07:29:47.766Z,21.45
2023-05-16T07:32:14.858Z,21.42
2023-05-16T07:34:41.747Z,21.48
2023-05-16T07:37:13.093Z,21.49
2023-05-16T07:39:40.399Z,21.47
2023-05-16T07:42:08.480Z,21.47
2023-05-16T07:44:36.283Z,21.46
2023-05-16T07:47:03.654Z,21.53
2023-05-16T07:49:30.579Z,21.59
2023-05-16T07:51:57.615Z,21.56
2023-05-16T07:54:24.614Z,21.57
2023-05-16T07:56:51.673Z,21.69
2023-05-16T07:59:18.519Z,21.58
2023-05-16T08:01:48.700Z,21.54
2023-05-16T08:04:15.697Z,21.47
2023-05-16T08:06:42.449Z,21.38
2023-05-16T08:09:12.192Z,21.33
2023-05-16T08:11:40.415Z,21.30
2023-05-16T08:14:07.282Z,21.22
2023-05-16T08:16:34.048Z,21.13
2023-05-16T08:19:02.242Z,21.07
2023-05-16T08:21:29.090Z,21.06
2023-05-16T08:23:56.163Z,20.98
2023-05-16T08:26:23.243Z,20.87
2023-05-16T08:28:50.447Z,20.79
2023-05-16T08:31:17.276Z,20.77
2023-05-16T08:33:44.368Z,20.77
2023-05-16T08:36:11.476Z,20.80
2023-05-16T08:38:38.321Z,20.91
2023-05-16T08:41:05.163Z,20.90
2023-05-16T08:43:33.726Z,20.90
2023-05-16T08:46:00.590Z,20.89
2023-05-16T08:48:28.988Z,20.89
2023-05-16T08:50:56.178Z,20.97
2023-05-16T08:53:32.100Z,21.09
2023-05-16T08:56:01.346Z,21.13
2023-05-16T08:58:30.199Z,21.16
2023-05-16T09:00:57.416Z,21.23
2023-05-16T09:03:25.431Z,21.39
2023-05-16T09:05:52.834Z,21.46
2023-05-16T09:08:20.364Z,21.53
2023-05-16T09:10:47.129Z,21.55
2023-05-16T09:13:15.233Z,21.62
2023-05-16T09:15:44.034Z,21.77
2023-05-16T09:18:14.163Z,21.81
2023-05-16T09:20:47.620Z,21.83
2023-05-16T09:23:14.412Z,21.91
2023-05-16T09:25:41.840Z,21.95
2023-05-16T09:28:13.029Z,21.93
2023-05-16T09:30:39.927Z,22.00
2023-05-16T09:33:09.930Z,21.98
2023-05-16T09:35:43.876Z,21.98
2023-05-16T09:38:17.090Z,22.11
2023-05-16T09:40:45.177Z,22.17
2023-05-16T09:43:16.969Z,22.25
2023-05-16T09:45:49.198Z,22.29
2023-05-16T09:48:23.297Z,22.33
2023-05-16T09:50:54.142Z,22.39
2023-05-16T09:53:29.129Z,22.50
2023-05-16T09:56:08.095Z,22.56
2023-05-16T09:58:36.941Z,22.56
2023-05-16T10:01:04.192Z,22.66
2023-05-16T10:03:31.673Z,22.63
2023-05-16T10:06:00.039Z,22.63
2023-05-16T10:08:27.270Z,22.61
2023-05-16T10:10:57.052Z,22.69
2023-05-16T10:13:35.305Z,22.90
2023-05-16T10:16:23.786Z,23.05
2023-05-16T10:18:52.070Z,23.17
2023-05-16T10:21:22.289Z,23.37
2023-05-16T10:23:51.963Z,23.53
2023-05-16T10:26:23.359Z,23.67
2023-05-16T10:28:51.899Z,23.85
2023-05-16T10:31:18.959Z,23.86
2023-05-16T10:33:46.520Z,23.88
2023-05-16T10:36:14.205Z,24.04
2023-05-16T10:38:42.141Z,24.18
2023-05-16T10:41:10.068Z,24.36
2023-05-16T10:43:37.094Z,24.39
2023-05-16T10:46:04.989Z,24.43
2023-05-16T10:48:40.395Z,24.43
2023-05-16T10:51:22.288Z,24.49
2023-05-16T10:53:52.763Z,24.55
2023-05-16T10:56:24.488Z,24.61
2023-05-16T10:58:54.221Z,24.57
2023-05-16T11:01:35.078Z,24.60
2023-05-16T11:04:08.013Z,24.51
2023-05-16T11:06:40.885Z,24.61
2023-05-16T11:09:10.690Z,24.63
2023-05-16T11:11:41.489Z,24.69
2023-05-16T11:14:08.930Z,24.63
2023-05-16T11:16:36.516Z,24.57
2023-05-16T11:19:09.249Z,24.57
2023-05-16T11:22:12.129Z,24.72
2023-05-16T11:24:43.630Z,24.97
2023-05-16T11:27:14.292Z,25.22
2023-05-16T11:29:41.289Z,25.46
2023-05-16T11:32:08.980Z,25.86
2023-05-16T11:34:39.911Z,26.04
2023-05-16T11:37:07.066Z,26.07
2023-05-16T11:39:34.608Z,26.27
2023-05-16T11:42:02.617Z,26.22
2023-05-16T11:44:29.551Z,26.25
2023-05-16T11:46:56.990Z,26.33
2023-05-16T11:49:23.908Z,26.34
2023-05-16T11:51:52.779Z,26.42
2023-05-16T11:54:19.910Z,26.42
2023-05-16T11:56:46.965Z,26.50
2023-05-16T11:59:14.303Z,26.55
2023-05-16T12:01:41.356Z,26.62
2023-05-16T12:04:12.584Z,26.67
2023-05-16T12:06:40.974Z,26.76
2023-05-16T12:09:11.804Z,26.87
2023-05-16T12:11:39.309Z,27.13
2023-05-16T12:14:07.838Z,27.06
2023-05-16T12:16:37.336Z,27.03
2023-05-16T12:19:06.461Z,27.14
2023-05-16T12:21:33.481Z,27.23
2023-05-16T12:24:00.802Z,27.24
2023-05-16T12:26:34.225Z,27.19
2023-05-16T12:29:09.174Z,26.83
2023-05-16T12:31:38.239Z,26.80
2023-05-16T12:34:06.236Z,26.68
2023-05-16T12:36:35.227Z,26.67
2023-05-16T12:39:04.190Z,26.38
2023-05-16T12:41:31.763Z,26.17
2023-05-16T12:44:12.516Z,25.74
2023-05-16T12:46:58.489Z,25.52
2023-05-16T12:49:25.628Z,25.36
2023-05-16T12:51:59.197Z,25.23
2023-05-16T12:54:26.140Z,25.08
2023-05-16T12:56:53.154Z,25.00
2023-05-16T12:59:20.590Z,24.80
2023-05-16T13:01:47.651Z,24.69
2023-05-16T13:04:19.255Z,24.62
2023-05-16T13:06:58.513Z,24.50
2023-05-16T13:09:29.867Z,24.46
2023-05-16T13:11:59.857Z,24.38
2023-05-16T13:14:27.605Z,24.48
2023-05-16T13:16:54.646Z,24.36
2023-05-16T13:19:23.371Z,24.36
2023-05-16T13:21:52.843Z,24.35
2023-05-16T13:24:19.658Z,24.43
2023-05-16T13:26:46.775Z,24.33
2023-05-16T13:29:15.261Z,24.27
2023-05-16T13:31:43.025Z,24.31
2023-05-16T13:34:10.564Z,24.27
2023-05-16T13:36:52.149Z,24.25
2023-05-16T13:39:19.856Z,24.20
2023-05-16T13:41:49.091Z,24.11
2023-05-16T13:44:16.914Z,24.06
2023-05-16T13:46:44.480Z,24.02
2023-05-16T13:49:11.518Z,24.03
2023-05-16T13:51:39.069Z,24.03
2023-05-16T13:54:06.121Z,23.96
2023-05-16T13:56:35.428Z,24.05
2023-05-16T13:59:06.830Z,24.07
2023-05-16T14:01:34.575Z,24.09
2023-05-16T14:04:01.548Z,24.09
2023-05-16T14:06:28.503Z,24.11
2023-05-16T14:08:55.572Z,24.11
2023-05-16T14:11:28.808Z,24.10
2023-05-16T14:13:57.704Z,24.18
2023-05-16T14:16:24.985Z,24.08
2023-05-16T14:18:52.123Z,24.08
2023-05-16T14:21:22.110Z,23.96
2023-05-16T14:23:48.941Z,23.90
2023-05-16T14:26:16.382Z,23.99
2023-05-16T14:28:43.781Z,23.85
2023-05-16T14:31:10.895Z,23.80
2023-05-16T14:33:45.060Z,23.75
2023-05-16T14:36:11.993Z,23.63
2023-05-16T14:38:42.405Z,23.58
2023-05-16T14:41:09.194Z,23.47
2023-05-16T14:43:36.239Z,23.37
2023-05-16T14:46:03.560Z,23.36
2023-05-16T14:48:31.661Z,23.31
2023-05-16T14:50:58.443Z,23.28
2023-05-16T14:53:25.437Z,23.24
2023-05-16T14:55:52.209Z,23.15
2023-05-16T14:58:19.116Z,23.13
2023-05-16T15:00:45.976Z,23.07
2023-05-16T15:03:15.132Z,22.95
2023-05-16T15:05:43.007Z,22.84
2023-05-16T15:08:10.599Z,22.79
2023-05-16T15:10:37.600Z,22.71
2023-05-16T15:13:08.003Z,22.59
2023-05-16T15:15:34.833Z,22.39
2023-05-16T15:18:01.986Z,22.41
2023-05-16T15:20:29.276Z,22.33
2023-05-16T15:22:59.593Z,22.08
2023-05-16T15:25:26.739Z,22.02
2023-05-16T15:27:54.401Z,22.01
2023-05-16T15:30:21.467Z,21.92
2023-05-16T15:32:48.482Z,21.91
2023-05-16T15:35:18.285Z,21.87
2023-05-16T15:37:46.329Z,21.74
2023-05-16T15:40:26.976Z,21.73
2023-05-16T15:42:55.208Z,21.66
2023-05-16T15:45:22.400Z,21.65
2023-05-16T15:47:50.097Z,21.69
2023-05-16T15:50:17.010Z,21.56
2023-05-16T15:52:46.994Z,21.45
2023-05-16T15:55:13.984Z,21.48
2023-05-16T15:57:40.777Z,21.40
2023-05-16T16:00:14.451Z,21.41
2023-05-16T16:02:43.810Z,21.31
2023-05-16T16:05:10.908Z,21.21
2023-05-16T16:07:40.756Z,21.15
2023-05-16T16:10:08.235Z,21.11
2023-05-16T16:12:37.110Z,20.99
2023-05-16T16:15:06.852Z,20.98
2023-05-16T16:17:36.984Z,20.90
2023-05-16T16:20:04.225Z,20.84
2023-05-16T16:22:31.999Z,20.83
2023-05-16T16:25:02.466Z,20.70
2023-05-16T16:27:29.299Z,20.68
2023-05-16T16:29:56.040Z,20.68
2023-05-16T16:32:26.059Z,20.65
2023-05-16T16:34:56.442Z,20.69
2023-05-16T16:40:17.179Z,20.52
2023-05-16T16:42:44.097Z,20.46
2023-05-16T16:45:11.189Z,20.37
2023-05-16T16:47:40.582Z,20.26
2023-05-16T16:50:11.811Z,20.22
2023-05-16T16:52:43.654Z,20.13
2023-05-16T16:55:17.335Z,20.08
2023-05-16T16:57:44.518Z,20.01
2023-05-16T17:00:12.237Z,19.98
2023-05-16T17:02:47.576Z,19.98
2023-05-16T17:05:14.856Z,19.82
2023-05-16T17:07:42.829Z,19.75
2023-05-16T17:10:16.004Z,19.65
2023-05-16T17:12:49.516Z,19.65
2023-05-16T17:15:20.344Z,19.55
2023-05-16T17:17:49.380Z,19.45
2023-05-16T17:20:16.825Z,19.42
2023-05-16T17:22:43.936Z,19.37
2023-05-16T17:25:10.743Z,19.35
2023-05-16T17:27:37.912Z,19.27
2023-05-16T17:30:06.037Z,19.20
2023-05-16T17:32:33.027Z,19.15
2023-05-16T17:35:03.901Z,19.09
2023-05-16T17:37:30.846Z,18.99
2023-05-16T17:39:58.684Z,19.03
2023-05-16T17:42:26.045Z,18.93
2023-05-16T17:44:53.705Z,18.95
2023-05-16T17:47:30.070Z,18.89
2023-05-16T17:50:01.301Z,18.70
2023-05-16T17:52:28.326Z,18.68
2023-05-16T17:54:55.690Z,18.68
2023-05-16T17:57:22.951Z,18.61
2023-05-16T17:59:52.585Z,18.62
2023-05-16T18:02:20.224Z,18.51
2023-05-16T18:04:48.590Z,18.50
2023-05-16T18:07:16.714Z,18.38
2023-05-16T18:09:44.335Z,18.36
2023-05-16T18:12:12.691Z,18.33
2023-05-16T18:14:41.613Z,18.25
2023-05-16T18:17:29.501Z,18.37
2023-05-16T18:20:21.339Z,18.30
2023-05-16T18:22:50.630Z,18.27
2023-05-16T18:25:21.349Z,18.26
2023-05-16T18:27:48.387Z,18.18
2023-05-16T18:30:16.631Z,18.18
2023-05-16T18:32:47.337Z,18.13
2023-05-16T18:35:14.899Z,18.17
2023-05-16T18:37:44.180Z,18.06
2023-05-16T18:40:14.637Z,18.02
2023-05-16T18:42:45.378Z,17.99
2023-05-16T18:45:23.305Z,17.97
2023-05-16T18:47:53.759Z,17.98
2023-05-16T18:50:21.818Z,17.94
2023-05-16T18:52:52.756Z,17.87
2023-05-16T18:55:20.362Z,17.84
2023-05-16T18:57:47.487Z,17.90
2023-05-16T19:00:15.077Z,17.80
2023-05-16T19:02:45.306Z,17.71
2023-05-16T19:05:14.710Z,17.68
2023-05-16T19:07:42.303Z,17.67
2023-05-16T19:10:13.601Z,17.68
2023-05-16T19:12:47.381Z,17.56
2023-05-16T19:15:14.168Z,17.56
2023-05-16T19:17:42.682Z,17.56
2023-05-16T19:20:11.139Z,17.58
2023-05-16T19:22:38.799Z,17.50
2023-05-16T19:25:07.150Z,17.43
2023-05-16T19:27:34.690Z,17.53
2023-05-16T19:30:02.084Z,17.51
2023-05-16T19:32:35.731Z,17.47
2023-05-16T19:35:07.702Z,17.46
2023-05-16T19:37:35.839Z,17.71
2023-05-16T19:40:05.498Z,17.97
2023-05-16T19:42:41.565Z,18.13
2023-05-16T19:45:09.417Z,18.21
2023-05-16T19:47:46.011Z,18.27
2023-05-16T19:50:13.334Z,18.39
2023-05-16T19:52:40.352Z,18.43
2023-05-16T19:55:08.689Z,18.50
2023-05-16T19:57:36.025Z,18.56
2023-05-16T20:00:07.278Z,18.59
2023-05-16T20:02:34.423Z,18.66
2023-05-16T20:05:01.496Z,18.69
2023-05-16T20:07:28.432Z,18.69
2023-05-16T20:09:55.391Z,18.66
2023-05-16T20:12:22.488Z,18.71
2023-05-16T20:14:49.680Z,18.61
2023-05-16T20:17:16.813Z,18.50
2023-05-16T20:19:44.347Z,18.49
2023-05-16T20:22:12.079Z,18.47
2023-05-16T20:24:39.333Z,18.54
2023-05-16T20:27:06.251Z,18.50
2023-05-16T20:29:35.586Z,18.53
2023-05-16T20:32:04.660Z,18.53
2023-05-16T20:34:32.278Z,18.42
2023-05-16T20:36:59.289Z,18.39
2023-05-16T20:39:32.148Z,18.33
2023-05-16T20:42:02.134Z,18.34
2023-05-16T20:44:29.388Z,18.30
2023-05-16T20:46:56.195Z,18.29
2023-05-16T20:49:23.132Z,18.27
2023-05-16T20:51:51.025Z,18.17
2023-05-16T20:54:18.451Z,18.13
2023-05-16T20:56:45.833Z,18.12
2023-05-16T20:59:13.032Z,18.19
2023-05-16T21:01:46.600Z,18.22
2023-05-16T21:04:20.787Z,18.24
2023-05-16T21:06:47.855Z,18.27
2023-05-16T21:09:14.856Z,18.31
2023-05-16T21:11:42.547Z,18.27
2023-05-16T21:14:10.047Z,18.30
2023-05-16T21:16:38.224Z,18.18
2023-05-16T21:19:05.736Z,18.01
2023-05-16T21:21:32.981Z,17.83
2023-05-16T21:24:00.101Z,17.75
2023-05-16T21:26:27.312Z,17.66
2023-05-16T21:28:55.903Z,17.58
2023-05-16T21:31:23.674Z,17.44
2023-05-16T21:33:53.530Z,17.29
2023-05-16T21:36:21.036Z,17.21
2023-05-16T21:38:57.885Z,17.02
2023-05-16T21:41:37.250Z,16.88
2023-05-16T21:44:04.153Z,16.76
2023-05-16T21:46:31.933Z,16.77
2023-05-16T21:49:01.441Z,16.66
2023-05-16T21:51:28.618Z,16.53
2023-05-16T21:53:55.516Z,16.42
2023-05-16T21:56:23.223Z,16.37
2023-05-16T21:58:53.526Z,16.29
2023-05-16T22:01:25.374Z,16.12
2023-05-16T22:06:56.800Z,15.92
2023-05-16T22:09:26.516Z,15.78
2023-05-16T22:11:53.270Z,15.72
2023-05-16T22:14:20.066Z,15.64
2023-05-16T22:16:46.980Z,15.70
2023-05-16T22:19:16.802Z,15.65
2023-05-16T22:21:43.556Z,15.53
2023-05-16T22:24:12.299Z,15.56
2023-05-16T22:26:39.418Z,15.59
2023-05-16T22:29:09.531Z,15.59
2023-05-16T22:31:36.504Z,15.62
2023-05-16T22:34:05.729Z,15.69
2023-05-16T22:36:34.945Z,15.77
2023-05-16T22:39:02.026Z,15.78
2023-05-16T22:41:31.720Z,15.83
2023-05-16T22:43:58.557Z,15.83
2023-05-16T22:46:28.557Z,15.88
2023-05-16T22:48:55.645Z,15.84
2023-05-16T22:51:24.326Z,15.87
2023-05-16T22:53:51.231Z,15.91
2023-05-16T22:56:18.040Z,15.96
2023-05-16T22:58:47.735Z,15.95
2023-05-16T23:01:14.775Z,15.93
2023-05-16T23:03:44.309Z,15.96
2023-05-16T23:06:11.153Z,16.05
2023-05-16T23:08:42.335Z,16.03
2023-05-16T23:11:09.174Z,16.03
2023-05-16T23:13:36.005Z,15.93
2023-05-16T23:16:12.444Z,15.89
2023-05-16T23:18:39.688Z,15.87
2023-05-16T23:21:06.905Z,15.83
2023-05-16T23:23:33.856Z,15.83
2023-05-16T23:26:00.746Z,15.79
2023-05-16T23:28:27.543Z,15.77
2023-05-16T23:30:57.698Z,15.76
2023-05-16T23:33:28.014Z,15.78
2023-05-16T23:35:58.948Z,15.81
2023-05-16T23:38:28.577Z,15.81
2023-05-16T23:40:55.975Z,15.83
2023-05-16T23:43:22.870Z,15.73
2023-05-16T23:45:52.624Z,15.71
2023-05-16T23:48:19.716Z,15.67
2023-05-16T23:50:46.667Z,15.71
2023-05-16T23:53:13.729Z,15.62
2023-05-16T23:55:40.949Z,15.61
2023-05-16T23:58:18.059Z,15.52
